createdAt,value
2018-09-25T00:00:37.382Z,7.63
2018-09-25T00:03:11.532Z,7.70
2018-09-25T00:05:45.606Z,7.59
2018-09-25T00:08:19.498Z,7.57
2018-09-25T00:10:53.404Z,7.45
2018-09-25T00:13:27.350Z,7.44
2018-09-25T00:16:01.795Z,7.30
2018-09-25T00:18:35.702Z,7.28
2018-09-25T00:21:09.540Z,7.36
2018-09-25T00:23:43.931Z,7.26
2018-09-25T00:26:17.951Z,7.19
2018-09-25T00:28:52.126Z,7.30
2018-09-25T00:31:26.031Z,7.34
2018-09-25T00:34:00.109Z,7.42
2018-09-25T00:36:33.805Z,7.44
2018-09-25T00:39:08.588Z,7.49
2018-09-25T00:41:43.185Z,7.26
2018-09-25T00:44:16.983Z,7.28
2018-09-25T00:46:51.183Z,7.23
2018-09-25T00:49:25.007Z,7.21
2018-09-25T00:51:58.996Z,7.13
2018-09-25T00:54:33.001Z,7.03
2018-09-25T00:57:08.183Z,7.01
2018-09-25T00:59:42.219Z,6.92
2018-09-25T01:02:16.193Z,6.93
2018-09-25T01:04:50.323Z,7.01
2018-09-25T01:07:24.003Z,6.93
2018-09-25T01:09:58.131Z,6.88
2018-09-25T01:12:31.873Z,6.78
2018-09-25T01:15:06.221Z,6.75
2018-09-25T01:17:40.357Z,6.85
2018-09-25T01:20:14.399Z,6.86
2018-09-25T01:22:49.137Z,6.95
2018-09-25T01:25:22.833Z,6.89
2018-09-25T01:27:56.691Z,6.91
2018-09-25T01:30:30.517Z,6.87
2018-09-25T01:33:04.859Z,6.84
2018-09-25T01:35:38.977Z,6.90
2018-09-25T01:38:14.133Z,6.90
2018-09-25T01:40:47.988Z,6.84
2018-09-25T01:43:22.333Z,6.81
2018-09-25T01:45:56.981Z,6.72
2018-09-25T01:48:32.057Z,6.69
2018-09-25T01:51:06.159Z,6.74
2018-09-25T01:53:40.828Z,6.74
2018-09-25T01:56:14.868Z,6.75
2018-09-25T01:58:49.508Z,6.84
2018-09-25T02:01:23.574Z,6.90
2018-09-25T02:03:57.729Z,6.83
2018-09-25T02:06:31.746Z,6.81
2018-09-25T02:09:05.630Z,6.79
2018-09-25T02:11:39.522Z,6.79
2018-09-25T02:14:13.666Z,6.64
2018-09-25T02:16:47.469Z,6.63
2018-09-25T02:19:21.486Z,6.65
2018-09-25T02:21:55.222Z,6.65
2018-09-25T02:24:29.326Z,6.68
2018-09-25T02:27:03.152Z,6.65
2018-09-25T02:29:37.040Z,6.66
2018-09-25T02:32:11.110Z,6.68
2018-09-25T02:34:44.964Z,6.65
2018-09-25T02:37:18.788Z,6.55
2018-09-25T02:39:52.658Z,6.56
2018-09-25T02:42:26.434Z,6.57
2018-09-25T02:45:00.299Z,6.61
2018-09-25T02:47:34.218Z,6.55
2018-09-25T02:50:08.207Z,6.59
2018-09-25T02:52:41.946Z,6.58
2018-09-25T02:55:16.276Z,6.56
2018-09-25T02:57:50.206Z,6.52
2018-09-25T03:00:24.338Z,6.46
2018-09-25T03:02:58.284Z,6.50
2018-09-25T03:05:32.179Z,6.52
2018-09-25T03:08:06.121Z,6.45
2018-09-25T03:10:39.950Z,6.45
2018-09-25T03:13:13.749Z,6.37
2018-09-25T03:15:47.802Z,6.36
2018-09-25T03:18:21.583Z,6.26
2018-09-25T03:20:55.344Z,6.29
2018-09-25T03:23:29.151Z,6.27
2018-09-25T03:26:03.328Z,6.22
2018-09-25T03:28:37.333Z,6.18
2018-09-25T03:31:11.481Z,6.21
2018-09-25T03:33:46.189Z,6.23
2018-09-25T03:36:20.069Z,6.31
2018-09-25T03:38:54.881Z,6.32
2018-09-25T03:41:29.399Z,6.25
2018-09-25T03:44:03.526Z,6.27
2018-09-25T03:46:37.611Z,6.26
2018-09-25T03:49:11.636Z,6.32
2018-09-25T03:51:45.437Z,6.23
2018-09-25T03:54:19.395Z,6.32
2018-09-25T03:56:53.506Z,6.21
2018-09-25T03:59:27.319Z,6.29
2018-09-25T04:02:01.412Z,6.21
2018-09-25T04:04:35.434Z,6.20
2018-09-25T04:07:09.418Z,6.13
2018-09-25T04:09:44.230Z,6.24
2018-09-25T04:12:18.334Z,6.15
2018-09-25T04:14:52.388Z,6.16
2018-09-25T04:17:26.550Z,6.18
2018-09-25T04:20:01.146Z,6.13
2018-09-25T04:22:35.014Z,6.15
2018-09-25T04:25:09.844Z,6.16
2018-09-25T04:27:43.878Z,6.13
2018-09-25T04:30:17.725Z,6.16
2018-09-25T04:32:51.580Z,6.13
2018-09-25T04:35:25.561Z,6.09
2018-09-25T04:37:59.596Z,6.06
2018-09-25T04:40:33.314Z,6.10
2018-09-25T04:43:07.228Z,6.05
2018-09-25T04:45:40.989Z,5.98
2018-09-25T04:48:15.034Z,5.96
2018-09-25T04:50:49.045Z,6.06
2018-09-25T04:53:22.741Z,6.16
2018-09-25T04:55:57.846Z,6.14
2018-09-25T04:58:31.558Z,6.05
2018-09-25T05:01:05.369Z,5.96
2018-09-25T05:03:40.244Z,6.09
2018-09-25T05:06:14.260Z,6.03
2018-09-25T05:08:48.112Z,5.97
2018-09-25T05:11:22.167Z,5.99
2018-09-25T05:13:56.291Z,5.95
2018-09-25T05:16:30.502Z,5.93
2018-09-25T05:19:04.469Z,6.08
2018-09-25T05:21:38.280Z,6.15
2018-09-25T05:24:12.077Z,6.21
2018-09-25T05:26:45.915Z,6.28
2018-09-25T05:29:19.605Z,6.28
2018-09-25T05:31:54.049Z,6.19
2018-09-25T05:34:27.883Z,6.31
2018-09-25T05:37:02.164Z,6.20
2018-09-25T05:39:35.965Z,6.27
2018-09-25T05:42:10.135Z,6.33
2018-09-25T05:44:44.079Z,6.41
2018-09-25T05:47:18.011Z,6.31
2018-09-25T05:49:52.161Z,6.22
2018-09-25T05:52:26.008Z,6.38
2018-09-25T05:54:59.836Z,6.45
2018-09-25T05:57:34.386Z,6.62
2018-09-25T06:00:08.206Z,6.63
2018-09-25T06:02:42.278Z,6.75
2018-09-25T06:05:16.470Z,6.89
2018-09-25T06:07:50.508Z,6.88
2018-09-25T06:10:24.505Z,7.09
2018-09-25T06:12:58.386Z,7.14
2018-09-25T06:15:32.071Z,7.31
2018-09-25T06:18:05.829Z,7.29
2018-09-25T06:20:39.748Z,7.40
2018-09-25T06:23:14.320Z,7.47
2018-09-25T06:25:48.165Z,7.63
2018-09-25T06:28:22.040Z,7.73
2018-09-25T06:30:56.692Z,7.82
2018-09-25T06:33:30.748Z,7.90
2018-09-25T06:36:04.545Z,7.88
2018-09-25T06:38:38.447Z,8.13
2018-09-25T06:41:12.429Z,8.22
2018-09-25T06:43:46.275Z,8.34
2018-09-25T06:46:20.034Z,8.29
2018-09-25T06:48:54.155Z,8.54
2018-09-25T06:51:28.234Z,8.61
2018-09-25T06:54:02.101Z,8.51
2018-09-25T06:56:35.791Z,8.59
2018-09-25T06:59:09.597Z,8.67
2018-09-25T07:01:43.393Z,8.62
2018-09-25T07:04:17.323Z,8.79
2018-09-25T07:06:51.382Z,8.96
2018-09-25T07:09:25.087Z,9.23
2018-09-25T07:11:59.013Z,9.32
2018-09-25T07:14:32.857Z,9.39
2018-09-25T07:17:06.571Z,9.51
2018-09-25T07:19:40.563Z,9.67
2018-09-25T07:22:14.397Z,9.53
2018-09-25T07:24:48.504Z,9.81
2018-09-25T07:27:22.623Z,9.83
2018-09-25T07:29:56.621Z,9.98
2018-09-25T07:32:31.045Z,10.18
2018-09-25T07:35:04.876Z,10.21
2018-09-25T07:37:38.910Z,10.44
2018-09-25T07:40:12.737Z,10.46
2018-09-25T07:42:46.819Z,10.48
2018-09-25T07:45:21.149Z,10.58
2018-09-25T07:47:55.191Z,10.74
2018-09-25T07:50:29.207Z,10.74
2018-09-25T07:53:03.295Z,10.95
2018-09-25T07:55:37.255Z,11.04
2018-09-25T07:58:11.069Z,11.19
2018-09-25T08:00:45.200Z,11.21
2018-09-25T08:03:19.185Z,11.28
2018-09-25T08:05:54.746Z,11.25
2018-09-25T08:08:28.533Z,11.46
2018-09-25T08:11:02.316Z,11.49
2018-09-25T08:13:36.128Z,11.51
2018-09-25T08:16:10.558Z,11.63
2018-09-25T08:18:44.418Z,11.71
2018-09-25T08:21:18.396Z,11.84
2018-09-25T08:23:52.237Z,11.89
2018-09-25T08:26:26.204Z,11.96
2018-09-25T08:28:59.936Z,11.85
2018-09-25T08:31:33.684Z,11.81
2018-09-25T08:34:07.999Z,12.11
2018-09-25T08:36:41.931Z,12.41
2018-09-25T08:39:15.855Z,12.47
2018-09-25T08:41:49.835Z,12.75
2018-09-25T08:44:24.814Z,13.00
2018-09-25T08:46:58.585Z,13.73
2018-09-25T08:49:33.279Z,14.38
2018-09-25T08:52:07.137Z,15.61
2018-09-25T08:54:40.919Z,15.25
2018-09-25T08:57:14.766Z,14.85
2018-09-25T08:59:48.653Z,14.70
2018-09-25T09:02:22.433Z,14.85
2018-09-25T09:04:56.261Z,14.53
2018-09-25T09:07:30.159Z,14.17
2018-09-25T09:10:03.976Z,14.17
2018-09-25T09:12:37.773Z,14.47
2018-09-25T09:15:11.828Z,17.55
2018-09-25T09:17:45.718Z,22.52
2018-09-25T09:20:19.737Z,25.73
2018-09-25T09:22:54.207Z,25.38
2018-09-25T09:25:28.076Z,23.68
2018-09-25T09:28:01.950Z,24.66
2018-09-25T09:30:35.809Z,29.45
2018-09-25T09:33:09.751Z,31.61
2018-09-25T09:35:43.573Z,30.43
2018-09-25T09:38:17.395Z,30.25
2018-09-25T09:40:51.307Z,25.39
2018-09-25T09:43:25.171Z,24.02
2018-09-25T09:45:59.002Z,25.49
2018-09-25T09:48:32.981Z,23.59
2018-09-25T09:51:06.939Z,21.12
2018-09-25T09:53:40.871Z,19.46
2018-09-25T09:56:14.742Z,18.57
2018-09-25T09:58:48.661Z,20.94
2018-09-25T10:01:22.469Z,19.35
2018-09-25T10:03:56.329Z,18.55
2018-09-25T10:06:30.167Z,18.03
2018-09-25T10:09:04.004Z,19.30
2018-09-25T10:11:37.865Z,22.71
2018-09-25T10:14:11.861Z,22.29
2018-09-25T10:16:45.760Z,21.06
2018-09-25T10:19:19.611Z,20.29
2018-09-25T10:21:53.398Z,20.33
2018-09-25T10:24:27.332Z,24.70
2018-09-25T10:27:02.326Z,29.90
2018-09-25T10:29:36.160Z,33.21
2018-09-25T10:32:10.124Z,29.69
2018-09-25T10:34:43.912Z,26.41
2018-09-25T10:37:18.044Z,24.48
2018-09-25T10:39:51.894Z,26.14
2018-09-25T10:42:25.606Z,27.34
2018-09-25T10:44:59.440Z,26.36
2018-09-25T10:47:33.325Z,24.59
2018-09-25T10:50:07.444Z,23.17
2018-09-25T10:52:41.386Z,21.35
2018-09-25T10:55:15.465Z,20.93
2018-09-25T10:57:50.105Z,20.19
2018-09-25T11:00:23.963Z,18.88
2018-09-25T11:02:57.878Z,18.57
2018-09-25T11:05:31.995Z,20.79
2018-09-25T11:08:05.787Z,24.43
2018-09-25T11:10:40.411Z,25.97
2018-09-25T11:13:14.366Z,24.28
2018-09-25T11:15:48.276Z,23.06
2018-09-25T11:18:22.352Z,27.87
2018-09-25T11:20:56.198Z,32.25
2018-09-25T11:23:30.020Z,33.79
2018-09-25T11:26:04.673Z,37.35
2018-09-25T11:28:38.438Z,40.40
2018-09-25T11:31:12.487Z,40.57
2018-09-25T11:33:46.350Z,41.33
2018-09-25T11:36:20.188Z,35.73
2018-09-25T11:38:53.893Z,34.65
2018-09-25T11:41:27.812Z,32.64
2018-09-25T11:44:01.738Z,29.83
2018-09-25T11:46:35.564Z,24.86
2018-09-25T11:49:09.646Z,25.75
2018-09-25T11:51:43.402Z,30.33
2018-09-25T11:54:17.502Z,35.15
2018-09-25T11:56:52.142Z,38.01
2018-09-25T11:59:25.947Z,36.64
2018-09-25T12:01:59.781Z,38.36
2018-09-25T12:04:33.723Z,31.13
2018-09-25T12:07:07.430Z,30.20
2018-09-25T12:09:41.414Z,30.06
2018-09-25T12:12:15.456Z,29.97
2018-09-25T12:14:49.332Z,33.17
2018-09-25T12:17:23.185Z,35.98
2018-09-25T12:19:57.011Z,33.07
2018-09-25T12:22:30.867Z,29.83
2018-09-25T12:25:04.643Z,25.49
2018-09-25T12:27:38.466Z,24.21
2018-09-25T12:30:13.072Z,23.98
2018-09-25T12:32:46.858Z,28.30
2018-09-25T12:35:20.743Z,32.96
2018-09-25T12:37:54.585Z,35.53
2018-09-25T12:40:28.598Z,38.23
2018-09-25T12:43:02.308Z,40.49
2018-09-25T12:45:36.138Z,38.22
2018-09-25T12:48:10.077Z,40.81
2018-09-25T12:50:44.132Z,42.58
2018-09-25T12:53:18.049Z,42.72
2018-09-25T12:55:51.822Z,43.91
2018-09-25T12:58:25.714Z,36.40
2018-09-25T13:01:00.488Z,30.15
2018-09-25T13:03:34.244Z,25.03
2018-09-25T13:06:08.697Z,23.00
2018-09-25T13:08:42.421Z,21.44
2018-09-25T13:11:16.189Z,21.61
2018-09-25T13:13:51.004Z,22.58
2018-09-25T13:16:24.985Z,22.35
2018-09-25T13:18:58.894Z,21.77
2018-09-25T13:21:32.733Z,21.65
2018-09-25T13:24:07.286Z,25.40
2018-09-25T13:26:41.517Z,28.52
2018-09-25T13:29:15.275Z,31.49
2018-09-25T13:31:49.102Z,35.01
2018-09-25T13:34:22.966Z,37.17
2018-09-25T13:36:56.752Z,38.38
2018-09-25T13:39:30.683Z,38.69
2018-09-25T13:42:05.045Z,38.87
2018-09-25T13:44:38.866Z,37.72
2018-09-25T13:47:12.874Z,38.47
2018-09-25T13:49:46.840Z,39.89
2018-09-25T13:52:20.621Z,38.80
2018-09-25T13:54:54.537Z,35.86
2018-09-25T13:57:28.186Z,32.66
2018-09-25T14:00:03.065Z,33.71
2018-09-25T14:02:36.908Z,35.55
2018-09-25T14:05:11.438Z,36.15
2018-09-25T14:07:45.284Z,35.97
2018-09-25T14:10:19.202Z,36.10
2018-09-25T14:12:53.318Z,36.77
2018-09-25T14:15:27.108Z,35.59
2018-09-25T14:18:01.027Z,36.39
2018-09-25T14:20:35.045Z,37.22
2018-09-25T14:23:08.938Z,36.92
2018-09-25T14:25:42.781Z,35.10
2018-09-25T14:28:16.507Z,33.87
2018-09-25T14:30:51.238Z,34.43
2018-09-25T14:33:25.033Z,34.57
2018-09-25T14:35:58.807Z,32.84
2018-09-25T14:38:32.553Z,32.30
2018-09-25T14:41:06.355Z,32.22
2018-09-25T14:43:40.203Z,31.96
2018-09-25T14:46:14.270Z,30.35
2018-09-25T14:48:48.456Z,29.48
2018-09-25T14:51:22.401Z,27.97
2018-09-25T14:53:56.242Z,27.06
2018-09-25T14:56:30.220Z,25.16
2018-09-25T14:59:04.315Z,24.16
2018-09-25T15:01:38.121Z,23.66
2018-09-25T15:04:12.003Z,22.48
2018-09-25T15:06:45.795Z,21.57
2018-09-25T15:09:19.599Z,21.25
2018-09-25T15:11:53.375Z,21.01
2018-09-25T15:14:27.185Z,20.23
2018-09-25T15:17:00.936Z,19.61
2018-09-25T15:19:34.943Z,19.03
2018-09-25T15:22:08.987Z,18.74
2018-09-25T15:24:42.479Z,18.36
2018-09-25T15:27:23.431Z,17.72
2018-09-25T15:29:57.237Z,17.72
2018-09-25T15:32:31.183Z,17.71
2018-09-25T15:35:04.931Z,17.35
2018-09-25T15:37:38.634Z,16.99
2018-09-25T15:40:12.277Z,17.16
2018-09-25T15:42:46.117Z,17.22
2018-09-25T15:45:19.963Z,17.44
2018-09-25T15:47:53.798Z,17.47
2018-09-25T15:50:27.548Z,17.34
2018-09-25T15:53:01.402Z,16.96
2018-09-25T15:55:35.432Z,16.70
2018-09-25T15:58:09.319Z,16.76
2018-09-25T16:00:43.120Z,16.47
2018-09-25T16:03:16.948Z,16.30
2018-09-25T16:05:50.901Z,16.35
2018-09-25T16:08:25.168Z,16.06
2018-09-25T16:10:59.746Z,15.78
2018-09-25T16:13:33.483Z,15.47
2018-09-25T16:16:07.420Z,15.39
2018-09-25T16:18:41.449Z,15.28
2018-09-25T16:21:15.342Z,15.07
2018-09-25T16:23:49.962Z,15.07
2018-09-25T16:26:23.851Z,14.97
2018-09-25T16:28:57.750Z,14.86
2018-09-25T16:31:31.658Z,14.77
2018-09-25T16:34:05.561Z,14.71
2018-09-25T16:36:39.388Z,14.50
2018-09-25T16:39:15.089Z,14.55
2018-09-25T16:41:49.202Z,14.46
2018-09-25T16:44:23.110Z,14.44
2018-09-25T16:46:57.175Z,14.32
2018-09-25T16:49:31.575Z,14.10
2018-09-25T16:52:05.598Z,13.94
2018-09-25T16:54:39.594Z,13.84
2018-09-25T16:57:13.555Z,13.54
2018-09-25T16:59:47.508Z,13.42
2018-09-25T17:02:21.291Z,13.36
2018-09-25T17:04:54.978Z,13.32
2018-09-25T17:07:29.581Z,13.19
2018-09-25T17:10:03.850Z,13.06
2018-09-25T17:12:37.679Z,12.99
2018-09-25T17:15:11.797Z,12.89
2018-09-25T17:17:45.621Z,12.86
2018-09-25T17:20:19.507Z,12.77
2018-09-25T17:22:53.304Z,12.73
2018-09-25T17:25:27.065Z,12.66
2018-09-25T17:28:00.735Z,12.61
2018-09-25T17:30:35.211Z,12.51
2018-09-25T17:33:09.065Z,12.46
2018-09-25T17:35:43.034Z,12.40
2018-09-25T17:38:16.889Z,12.31
2018-09-25T17:40:50.807Z,12.40
2018-09-25T17:43:24.638Z,12.40
2018-09-25T17:45:58.530Z,12.38
2018-09-25T17:48:32.371Z,12.33
2018-09-25T17:51:06.046Z,12.24
2018-09-25T17:53:39.740Z,12.21
2018-09-25T17:56:14.048Z,12.23
2018-09-25T17:58:48.038Z,12.22
2018-09-25T18:01:22.792Z,12.11
2018-09-25T18:03:56.892Z,12.07
2018-09-25T18:06:30.742Z,11.97
2018-09-25T18:09:04.539Z,11.85
2018-09-25T18:11:38.485Z,11.89
2018-09-25T18:14:12.470Z,11.81
2018-09-25T18:16:46.371Z,11.73
2018-09-25T18:19:20.413Z,11.71
2018-09-25T18:21:54.454Z,11.63
2018-09-25T18:24:28.263Z,11.51
2018-09-25T18:27:02.261Z,11.45
2018-09-25T18:29:35.941Z,11.46
2018-09-25T18:32:09.764Z,11.45
2018-09-25T18:34:43.739Z,11.40
2018-09-25T18:37:17.567Z,11.33
2018-09-25T18:39:51.681Z,11.32
2018-09-25T18:42:25.621Z,11.30
2018-09-25T18:44:59.577Z,11.29
2018-09-25T18:47:33.910Z,11.27
2018-09-25T18:50:08.147Z,11.25
2018-09-25T18:52:42.045Z,11.25
2018-09-25T18:55:16.115Z,11.23
2018-09-25T18:57:49.829Z,11.12
2018-09-25T19:00:23.943Z,10.99
2018-09-25T19:02:57.861Z,10.81
2018-09-25T19:05:31.985Z,10.76
2018-09-25T19:08:06.121Z,10.80
2018-09-25T19:10:40.224Z,10.69
2018-09-25T19:13:14.021Z,10.61
2018-09-25T19:15:48.265Z,10.71
2018-09-25T19:18:22.125Z,10.81
2018-09-25T19:20:55.916Z,10.75
2018-09-25T19:23:29.733Z,10.63
2018-09-25T19:26:03.665Z,10.56
2018-09-25T19:28:37.534Z,10.58
2018-09-25T19:31:12.400Z,10.52
2018-09-25T19:33:46.441Z,10.48
2018-09-25T19:36:20.287Z,10.44
2018-09-25T19:38:54.093Z,10.31
2018-09-25T19:41:27.945Z,10.25
2018-09-25T19:44:01.895Z,10.25
2018-09-25T19:46:36.195Z,10.25
2018-09-25T19:49:10.115Z,10.17
2018-09-25T19:51:44.609Z,10.16
2018-09-25T19:54:18.661Z,10.04
2018-09-25T19:56:52.484Z,9.86
2018-09-25T19:59:26.423Z,9.81
2018-09-25T20:02:00.193Z,9.70
2018-09-25T20:04:33.911Z,9.61
2018-09-25T20:07:07.778Z,9.66
2018-09-25T20:09:41.772Z,9.64
2018-09-25T20:12:15.713Z,9.59
2018-09-25T20:14:49.492Z,9.50
2018-09-25T20:17:23.515Z,9.45
2018-09-25T20:19:57.265Z,9.33
2018-09-25T20:22:31.310Z,9.28
2018-09-25T20:25:05.198Z,9.20
2018-09-25T20:27:39.097Z,9.19
2018-09-25T20:30:13.156Z,9.18
2018-09-25T20:32:46.984Z,9.12
2018-09-25T20:35:20.916Z,9.19
2018-09-25T20:37:54.808Z,9.07
2018-09-25T20:40:28.626Z,9.02
2018-09-25T20:43:02.502Z,9.05
2018-09-25T20:45:36.441Z,9.06
2018-09-25T20:48:10.265Z,9.09
2018-09-25T20:50:43.912Z,9.24
2018-09-25T20:53:17.764Z,9.15
2018-09-25T20:55:52.272Z,9.27
2018-09-25T20:58:26.087Z,9.29
2018-09-25T21:00:59.954Z,9.15
2018-09-25T21:03:33.794Z,9.15
2018-09-25T21:06:07.764Z,9.07
2018-09-25T21:08:41.516Z,9.09
2018-09-25T21:11:15.319Z,9.07
2018-09-25T21:13:49.146Z,9.12
2018-09-25T21:16:23.287Z,9.02
2018-09-25T21:18:57.024Z,8.92
2018-09-25T21:21:30.896Z,8.95
2018-09-25T21:24:04.742Z,8.86
2018-09-25T21:26:38.728Z,8.69
2018-09-25T21:29:12.836Z,8.60
2018-09-25T21:31:46.913Z,8.53
2018-09-25T21:34:21.012Z,8.44
2018-09-25T21:36:54.914Z,8.50
2018-09-25T21:39:28.995Z,8.57
2018-09-25T21:42:02.929Z,8.58
2018-09-25T21:44:36.678Z,8.53
2018-09-25T21:47:10.480Z,8.72
2018-09-25T21:49:44.513Z,8.68
2018-09-25T21:52:18.381Z,8.66
2018-09-25T21:54:52.429Z,8.51
2018-09-25T21:57:26.464Z,8.58
2018-09-25T22:00:00.235Z,8.44
2018-09-25T22:02:34.421Z,8.37
2018-09-25T22:05:08.495Z,8.27
2018-09-25T22:07:42.625Z,8.27
2018-09-25T22:10:16.414Z,8.25
2018-09-25T22:12:50.265Z,8.16
2018-09-25T22:15:24.299Z,8.12
2018-09-25T22:17:58.229Z,8.09
2018-09-25T22:20:32.144Z,8.08
2018-09-25T22:23:06.008Z,8.11
2018-09-25T22:25:39.906Z,8.05
2018-09-25T22:28:13.788Z,8.08
2018-09-25T22:30:47.701Z,8.13
2018-09-25T22:33:21.538Z,8.22
2018-09-25T22:35:56.130Z,8.32
2018-09-25T22:38:30.104Z,8.49
2018-09-25T22:41:03.872Z,8.43
2018-09-25T22:43:37.812Z,8.31
2018-09-25T22:46:11.620Z,8.31
2018-09-25T22:48:45.600Z,8.38
2018-09-25T22:51:19.348Z,8.31
2018-09-25T22:53:53.752Z,8.09
2018-09-25T22:56:27.523Z,7.99
2018-09-25T22:59:01.549Z,8.01
2018-09-25T23:01:35.372Z,8.01
2018-09-25T23:04:09.132Z,8.04
2018-09-25T23:06:43.064Z,8.17
2018-09-25T23:09:17.651Z,8.20
2018-09-25T23:11:51.682Z,8.32
2018-09-25T23:14:25.832Z,8.23
2018-09-25T23:16:59.611Z,8.29
2018-09-25T23:19:33.874Z,8.22
2018-09-25T23:22:07.719Z,8.33
2018-09-25T23:24:41.590Z,8.33
2018-09-25T23:27:15.479Z,8.34
2018-09-25T23:29:49.543Z,8.32
2018-09-25T23:32:23.395Z,8.30
2018-09-25T23:34:57.537Z,8.19
2018-09-25T23:37:31.332Z,8.22
2018-09-25T23:40:10.008Z,8.30
2018-09-25T23:42:48.146Z,8.44
2018-09-25T23:45:20.893Z,8.37
2018-09-25T23:48:00.225Z,8.34
2018-09-25T23:52:36.755Z,8.35
2018-09-25T23:55:11.915Z,8.24
2018-09-25T23:57:46.701Z,8.17
